sensor_id;sensor_type;location;lat;lon;timestamp;P1;durP1;ratioP1;P2;durP2;ratioP2
64018;SDS011;66942;52.138;5.216;2023-07-29T00:00:43;1.8;;;1.3;;
64018;SDS011;66942;52.138;5.216;2023-07-29T00:02:20;1.2;;;1.11;;
64018;SDS011;66942;52.138;5.216;2023-07-29T00:03:56;2.0;;;1.3;;
64018;SDS011;66942;52.138;5.216;2023-07-29T00:07:08;1.6;;;1.5;;
64018;SDS011;66942;52.138;5.216;2023-07-29T00:08:44;1.4;;;1.3;;
64018;SDS011;66942;52.138;5.216;2023-07-29T00:10:20;2.9;;;1.5;;
64018;SDS011;66942;52.138;5.216;2023-07-29T00:11:56;2.0;;;1.4;;
64018;SDS011;66942;52.138;5.216;2023-07-29T00:15:09;2.5;;;1.4;;
64018;SDS011;66942;52.138;5.216;2023-07-29T00:16:48;1.3;;;1.11;;
64018;SDS011;66942;52.138;5.216;2023-07-29T00:18:24;1.6;;;1.4;;
64018;SDS011;66942;52.138;5.216;2023-07-29T00:21:36;1.8;;;1.2;;
64018;SDS011;66942;52.138;5.216;2023-07-29T00:23:12;2.1;;;1.2;;
64018;SDS011;66942;52.138;5.216;2023-07-29T00:24:51;1.3;;;1.2;;
64018;SDS011;66942;52.138;5.216;2023-07-29T00:28:04;1.7;;;1.3;;
64018;SDS011;66942;52.138;5.216;2023-07-29T00:29:40;1.7;;;1.3;;
64018;SDS011;66942;52.138;5.216;2023-07-29T00:31:16;2.4;;;1.3;;
64018;SDS011;66942;52.138;5.216;2023-07-29T00:32:52;2.4;;;1.3;;
64018;SDS011;66942;52.138;5.216;2023-07-29T00:36:04;1.2;;;1.11;;
64018;SDS011;66942;52.138;5.216;2023-07-29T00:37:40;1.4;;;1.0;;
64018;SDS011;66942;52.138;5.216;2023-07-29T00:39:16;1.6;;;1.11;;
64018;SDS011;66942;52.138;5.216;2023-07-29T00:42:29;1.7;;;1.11;;
64018;SDS011;66942;52.138;5.216;2023-07-29T00:44:05;1.3;;;1.11;;
64018;SDS011;66942;52.138;5.216;2023-07-29T00:45:41;1.2;;;1.11;;
64018;SDS011;66942;52.138;5.216;2023-07-29T00:48:57;1.6;;;1.2;;
64018;SDS011;66942;52.138;5.216;2023-07-29T00:50:33;2.9;;;1.5;;
64018;SDS011;66942;52.138;5.216;2023-07-29T00:52:10;2.31;;;1.2;;
64018;SDS011;66942;52.138;5.216;2023-07-29T00:53:46;1.5;;;1.2;;
64018;SDS011;66942;52.138;5.216;2023-07-29T00:56:58;1.9;;;1.2;;
64018;SDS011;66942;52.138;5.216;2023-07-29T00:58:34;2.1;;;1.3;;
64018;SDS011;66942;52.138;5.216;2023-07-29T01:00:10;1.5;;;1.3;;
64018;SDS011;66942;52.138;5.216;2023-07-29T01:03:23;1.8;;;1.3;;
64018;SDS011;66942;52.138;5.216;2023-07-29T01:04:59;1.6;;;1.3;;
64018;SDS011;66942;52.138;5.216;2023-07-29T01:06:46;1.9;;;1.4;;
64018;SDS011;66942;52.138;5.216;2023-07-29T01:08:28;1.4;;;1.2;;
64018;SDS011;66942;52.138;5.216;2023-07-29T01:11:58;1.8;;;1.3;;
64018;SDS011;66942;52.138;5.216;2023-07-29T01:13:44;2.1;;;1.2;;
64018;SDS011;66942;52.138;5.216;2023-07-29T01:15:30;1.5;;;1.4;;
64018;SDS011;66942;52.138;5.216;2023-07-29T01:17:13;1.9;;;1.5;;
64018;SDS011;66942;52.138;5.216;2023-07-29T01:19:06;2.8;;;1.4;;
64018;SDS011;66942;52.138;5.216;2023-07-29T01:22:23;2.0;;;1.3;;
64018;SDS011;66942;52.138;5.216;2023-07-29T01:24:00;2.31;;;1.7;;
64018;SDS011;66942;52.138;5.216;2023-07-29T01:25:36;1.5;;;1.4;;
64018;SDS011;66942;52.138;5.216;2023-07-29T01:28:48;2.5;;;1.5;;
64018;SDS011;66942;52.138;5.216;2023-07-29T01:30:25;2.1;;;1.6;;
64018;SDS011;66942;52.138;5.216;2023-07-29T01:32:14;2.8;;;2.0;;
64018;SDS011;66942;52.138;5.216;2023-07-29T01:33:57;2.21;;;1.7;;
64018;SDS011;66942;52.138;5.216;2023-07-29T01:35:40;2.31;;;2.0;;
64018;SDS011;66942;52.138;5.216;2023-07-29T01:39:02;2.31;;;1.9;;
64018;SDS011;66942;52.138;5.216;2023-07-29T01:40:38;2.31;;;2.1;;
64018;SDS011;66942;52.138;5.216;2023-07-29T01:42:16;2.4;;;2.21;;
64018;SDS011;66942;52.138;5.216;2023-07-29T01:45:30;3.3;;;3.0;;
64018;SDS011;66942;52.138;5.216;2023-07-29T01:47:06;3.5;;;3.2;;
64018;SDS011;66942;52.138;5.216;2023-07-29T01:48:42;4.0;;;3.0;;
64018;SDS011;66942;52.138;5.216;2023-07-29T01:50:18;3.0;;;2.8;;
64018;SDS011;66942;52.138;5.216;2023-07-29T01:53:30;3.7;;;3.4;;
64018;SDS011;66942;52.138;5.216;2023-07-29T01:55:06;4.3;;;3.2;;
64018;SDS011;66942;52.138;5.216;2023-07-29T01:56:43;3.5;;;3.2;;
64018;SDS011;66942;52.138;5.216;2023-07-29T01:59:56;3.5;;;3.2;;
64018;SDS011;66942;52.138;5.216;2023-07-29T02:01:32;5.11;;;3.8;;
64018;SDS011;66942;52.138;5.216;2023-07-29T02:03:08;4.0;;;3.6;;
64018;SDS011;66942;52.138;5.216;2023-07-29T02:06:20;4.3;;;3.9;;
64018;SDS011;66942;52.138;5.216;2023-07-29T02:07:56;4.41;;;4.0;;
64018;SDS011;66942;52.138;5.216;2023-07-29T02:09:32;4.7;;;4.2;;
64018;SDS011;66942;52.138;5.216;2023-07-29T02:12:45;4.41;;;3.8;;
64018;SDS011;66942;52.138;5.216;2023-07-29T02:14:21;4.1;;;3.7;;
64018;SDS011;66942;52.138;5.216;2023-07-29T02:15:57;3.6;;;3.3;;
64018;SDS011;66942;52.138;5.216;2023-07-29T02:17:33;4.5;;;3.4;;
64018;SDS011;66942;52.138;5.216;2023-07-29T02:20:45;5.11;;;4.3;;
64018;SDS011;66942;52.138;5.216;2023-07-29T02:22:21;5.2;;;4.3;;
64018;SDS011;66942;52.138;5.216;2023-07-29T02:23:58;4.61;;;4.2;;
64018;SDS011;66942;52.138;5.216;2023-07-29T02:27:11;4.2;;;3.9;;
64018;SDS011;66942;52.138;5.216;2023-07-29T02:28:47;4.61;;;4.2;;
64018;SDS011;66942;52.138;5.216;2023-07-29T02:30:23;4.3;;;4.0;;
64018;SDS011;66942;52.138;5.216;2023-07-29T02:33:35;4.5;;;4.1;;
64018;SDS011;66942;52.138;5.216;2023-07-29T02:35:11;4.7;;;4.1;;
64018;SDS011;66942;52.138;5.216;2023-07-29T02:36:47;4.41;;;4.1;;
64018;SDS011;66942;52.138;5.216;2023-07-29T02:38:24;4.0;;;3.7;;
64018;SDS011;66942;52.138;5.216;2023-07-29T02:41:36;3.8;;;3.5;;
64018;SDS011;66942;52.138;5.216;2023-07-29T02:43:12;4.0;;;3.7;;
64018;SDS011;66942;52.138;5.216;2023-07-29T02:44:48;3.8;;;3.5;;
64018;SDS011;66942;52.138;5.216;2023-07-29T02:48:00;3.4;;;3.2;;
64018;SDS011;66942;52.138;5.216;2023-07-29T02:49:36;3.9;;;3.6;;
64018;SDS011;66942;52.138;5.216;2023-07-29T02:51:13;3.6;;;3.3;;
64018;SDS011;66942;52.138;5.216;2023-07-29T02:54:25;3.2;;;2.7;;
64018;SDS011;66942;52.138;5.216;2023-07-29T02:56:01;3.9;;;3.1;;
64018;SDS011;66942;52.138;5.216;2023-07-29T02:57:37;3.6;;;3.3;;
64018;SDS011;66942;52.138;5.216;2023-07-29T03:00:49;3.2;;;2.9;;
64018;SDS011;66942;52.138;5.216;2023-07-29T03:02:25;3.0;;;2.8;;
64018;SDS011;66942;52.138;5.216;2023-07-29T03:04:02;2.9;;;2.7;;
64018;SDS011;66942;52.138;5.216;2023-07-29T03:05:38;2.9;;;2.4;;
64018;SDS011;66942;52.138;5.216;2023-07-29T03:08:50;3.1;;;2.8;;
64018;SDS011;66942;52.138;5.216;2023-07-29T03:10:26;3.1;;;2.9;;
64018;SDS011;66942;52.138;5.216;2023-07-29T03:12:02;2.9;;;2.6;;
64018;SDS011;66942;52.138;5.216;2023-07-29T03:15:15;3.2;;;2.9;;
64018;SDS011;66942;52.138;5.216;2023-07-29T03:16:51;2.6;;;2.4;;
64018;SDS011;66942;52.138;5.216;2023-07-29T03:18:27;2.6;;;2.4;;
64018;SDS011;66942;52.138;5.216;2023-07-29T03:21:40;3.3;;;2.4;;
64018;SDS011;66942;52.138;5.216;2023-07-29T03:23:16;2.4;;;2.21;;
64018;SDS011;66942;52.138;5.216;2023-07-29T03:24:52;2.6;;;2.4;;
64018;SDS011;66942;52.138;5.216;2023-07-29T03:28:05;2.5;;;2.31;;
64018;SDS011;66942;52.138;5.216;2023-07-29T03:29:41;2.5;;;2.21;;
64018;SDS011;66942;52.138;5.216;2023-07-29T03:31:17;2.6;;;2.31;;
64018;SDS011;66942;52.138;5.216;2023-07-29T03:32:53;2.31;;;2.1;;
64018;SDS011;66942;52.138;5.216;2023-07-29T03:36:05;2.21;;;2.0;;
64018;SDS011;66942;52.138;5.216;2023-07-29T03:37:41;2.4;;;2.21;;
64018;SDS011;66942;52.138;5.216;2023-07-29T03:39:17;2.4;;;2.21;;
64018;SDS011;66942;52.138;5.216;2023-07-29T03:42:30;2.4;;;2.0;;
64018;SDS011;66942;52.138;5.216;2023-07-29T03:44:06;2.21;;;2.0;;
64018;SDS011;66942;52.138;5.216;2023-07-29T03:45:42;2.31;;;2.1;;
64018;SDS011;66942;52.138;5.216;2023-07-29T03:48:54;2.31;;;2.1;;
64018;SDS011;66942;52.138;5.216;2023-07-29T03:50:30;2.31;;;2.1;;
64018;SDS011;66942;52.138;5.216;2023-07-29T03:52:10;2.31;;;2.1;;
64018;SDS011;66942;52.138;5.216;2023-07-29T03:53:46;2.0;;;1.9;;
64018;SDS011;66942;52.138;5.216;2023-07-29T03:56:59;2.1;;;2.0;;
64018;SDS011;66942;52.138;5.216;2023-07-29T03:58:35;2.21;;;2.0;;
64018;SDS011;66942;52.138;5.216;2023-07-29T04:00:11;3.3;;;2.6;;
64018;SDS011;66942;52.138;5.216;2023-07-29T04:03:24;3.3;;;2.5;;
64018;SDS011;66942;52.138;5.216;2023-07-29T04:05:00;2.1;;;2.0;;
64018;SDS011;66942;52.138;5.216;2023-07-29T04:06:37;2.7;;;2.5;;
64018;SDS011;66942;52.138;5.216;2023-07-29T04:09:49;2.5;;;2.31;;
64018;SDS011;66942;52.138;5.216;2023-07-29T04:11:25;2.4;;;2.21;;
64018;SDS011;66942;52.138;5.216;2023-07-29T04:13:01;2.31;;;2.21;;
64018;SDS011;66942;52.138;5.216;2023-07-29T04:14:37;2.31;;;2.1;;
64018;SDS011;66942;52.138;5.216;2023-07-29T04:17:49;2.7;;;2.5;;
64018;SDS011;66942;52.138;5.216;2023-07-29T04:19:26;2.7;;;2.5;;
64018;SDS011;66942;52.138;5.216;2023-07-29T04:21:02;2.5;;;2.31;;
64018;SDS011;66942;52.138;5.216;2023-07-29T04:24:14;2.21;;;2.0;;
64018;SDS011;66942;52.138;5.216;2023-07-29T04:25:50;2.21;;;2.0;;
64018;SDS011;66942;52.138;5.216;2023-07-29T04:27:26;2.21;;;2.0;;
64018;SDS011;66942;52.138;5.216;2023-07-29T04:30:38;2.21;;;2.1;;
64018;SDS011;66942;52.138;5.216;2023-07-29T04:32:15;3.2;;;2.31;;
64018;SDS011;66942;52.138;5.216;2023-07-29T04:33:51;2.31;;;2.1;;
64018;SDS011;66942;52.138;5.216;2023-07-29T04:37:03;2.6;;;2.4;;
64018;SDS011;66942;52.138;5.216;2023-07-29T04:38:39;2.1;;;2.0;;
64018;SDS011;66942;52.138;5.216;2023-07-29T04:40:15;2.6;;;2.4;;
64018;SDS011;66942;52.138;5.216;2023-07-29T04:41:51;2.4;;;2.21;;
64018;SDS011;66942;52.138;5.216;2023-07-29T04:45:06;2.6;;;2.4;;
64018;SDS011;66942;52.138;5.216;2023-07-29T04:46:43;2.5;;;2.31;;
64018;SDS011;66942;52.138;5.216;2023-07-29T04:48:19;2.8;;;2.6;;
64018;SDS011;66942;52.138;5.216;2023-07-29T04:51:31;2.8;;;2.6;;
64018;SDS011;66942;52.138;5.216;2023-07-29T04:53:07;2.8;;;2.6;;
64018;SDS011;66942;52.138;5.216;2023-07-29T04:54:43;2.8;;;2.6;;
64018;SDS011;66942;52.138;5.216;2023-07-29T04:57:56;2.7;;;2.5;;
64018;SDS011;66942;52.138;5.216;2023-07-29T04:59:32;2.9;;;2.7;;
64018;SDS011;66942;52.138;5.216;2023-07-29T05:01:08;3.7;;;3.4;;
64018;SDS011;66942;52.138;5.216;2023-07-29T05:02:44;3.3;;;3.0;;
64018;SDS011;66942;52.138;5.216;2023-07-29T05:05:57;3.3;;;3.0;;
64018;SDS011;66942;52.138;5.216;2023-07-29T05:07:34;3.2;;;3.0;;
64018;SDS011;66942;52.138;5.216;2023-07-29T05:09:12;3.7;;;3.1;;
64018;SDS011;66942;52.138;5.216;2023-07-29T05:12:27;3.2;;;2.9;;
64018;SDS011;66942;52.138;5.216;2023-07-29T05:14:03;3.3;;;3.1;;
64018;SDS011;66942;52.138;5.216;2023-07-29T05:15:39;3.6;;;3.3;;
64018;SDS011;66942;52.138;5.216;2023-07-29T05:18:51;3.4;;;3.2;;
64018;SDS011;66942;52.138;5.216;2023-07-29T05:20:27;3.3;;;3.0;;
64018;SDS011;66942;52.138;5.216;2023-07-29T05:22:04;3.9;;;3.5;;
64018;SDS011;66942;52.138;5.216;2023-07-29T05:23:40;3.6;;;3.3;;
64018;SDS011;66942;52.138;5.216;2023-07-29T05:26:52;4.0;;;3.7;;
64018;SDS011;66942;52.138;5.216;2023-07-29T05:28:28;3.8;;;3.4;;
64018;SDS011;66942;52.138;5.216;2023-07-29T05:30:05;3.6;;;3.3;;
64018;SDS011;66942;52.138;5.216;2023-07-29T05:33:18;4.0;;;3.5;;
64018;SDS011;66942;52.138;5.216;2023-07-29T05:34:54;3.9;;;3.6;;
64018;SDS011;66942;52.138;5.216;2023-07-29T05:36:31;4.5;;;3.9;;
64018;SDS011;66942;52.138;5.216;2023-07-29T05:39:43;4.1;;;3.8;;
64018;SDS011;66942;52.138;5.216;2023-07-29T05:41:19;4.5;;;4.2;;
64018;SDS011;66942;52.138;5.216;2023-07-29T05:42:55;4.61;;;4.2;;
64018;SDS011;66942;52.138;5.216;2023-07-29T05:46:07;4.1;;;3.8;;
64018;SDS011;66942;52.138;5.216;2023-07-29T05:47:43;4.7;;;4.3;;
64018;SDS011;66942;52.138;5.216;2023-07-29T05:49:20;4.8;;;4.41;;
64018;SDS011;66942;52.138;5.216;2023-07-29T05:50:56;4.0;;;3.7;;
64018;SDS011;66942;52.138;5.216;2023-07-29T05:54:09;4.41;;;4.2;;
64018;SDS011;66942;52.138;5.216;2023-07-29T05:55:45;4.1;;;3.8;;
64018;SDS011;66942;52.138;5.216;2023-07-29T05:57:21;4.7;;;4.41;;
64018;SDS011;66942;52.138;5.216;2023-07-29T06:00:34;4.7;;;4.3;;
64018;SDS011;66942;52.138;5.216;2023-07-29T06:02:10;4.41;;;4.0;;
64018;SDS011;66942;52.138;5.216;2023-07-29T06:03:46;5.0;;;4.61;;
64018;SDS011;66942;52.138;5.216;2023-07-29T06:06:58;5.0;;;4.61;;
64018;SDS011;66942;52.138;5.216;2023-07-29T06:08:34;5.11;;;4.7;;
64018;SDS011;66942;52.138;5.216;2023-07-29T06:10:12;4.91;;;4.5;;
64018;SDS011;66942;52.138;5.216;2023-07-29T06:11:49;4.8;;;4.41;;
64018;SDS011;66942;52.138;5.216;2023-07-29T06:15:02;4.91;;;4.5;;
64018;SDS011;66942;52.138;5.216;2023-07-29T06:16:38;4.1;;;3.8;;
64018;SDS011;66942;52.138;5.216;2023-07-29T06:18:14;5.6;;;5.11;;
64018;SDS011;66942;52.138;5.216;2023-07-29T06:21:26;5.6;;;5.2;;
64018;SDS011;66942;52.138;5.216;2023-07-29T06:23:02;4.5;;;4.1;;
64018;SDS011;66942;52.138;5.216;2023-07-29T06:24:39;5.3;;;4.91;;
64018;SDS011;66942;52.138;5.216;2023-07-29T06:27:52;4.8;;;4.3;;
64018;SDS011;66942;52.138;5.216;2023-07-29T06:29:28;5.11;;;4.41;;
64018;SDS011;66942;52.138;5.216;2023-07-29T06:31:03;4.61;;;4.2;;
64018;SDS011;66942;52.138;5.216;2023-07-29T06:34:16;4.5;;;4.2;;
64018;SDS011;66942;52.138;5.216;2023-07-29T06:35:53;4.5;;;3.9;;
64018;SDS011;66942;52.138;5.216;2023-07-29T06:37:29;4.5;;;4.1;;
64018;SDS011;66942;52.138;5.216;2023-07-29T06:39:06;4.0;;;3.7;;
64018;SDS011;66942;52.138;5.216;2023-07-29T06:42:18;4.7;;;4.3;;
64018;SDS011;66942;52.138;5.216;2023-07-29T06:43:54;4.1;;;3.7;;
64018;SDS011;66942;52.138;5.216;2023-07-29T06:45:30;4.61;;;4.2;;
64018;SDS011;66942;52.138;5.216;2023-07-29T06:48:42;4.8;;;4.41;;
64018;SDS011;66942;52.138;5.216;2023-07-29T06:50:19;4.61;;;4.2;;
64018;SDS011;66942;52.138;5.216;2023-07-29T06:51:55;5.9;;;5.3;;
64018;SDS011;66942;52.138;5.216;2023-07-29T06:55:07;4.61;;;4.2;;
64018;SDS011;66942;52.138;5.216;2023-07-29T06:56:43;4.61;;;4.3;;
64018;SDS011;66942;52.138;5.216;2023-07-29T06:58:19;4.3;;;3.9;;
64018;SDS011;66942;52.138;5.216;2023-07-29T06:59:57;4.0;;;3.7;;
64018;SDS011;66942;52.138;5.216;2023-07-29T07:03:10;6.0;;;4.5;;
64018;SDS011;66942;52.138;5.216;2023-07-29T07:04:46;4.5;;;4.1;;
64018;SDS011;66942;52.138;5.216;2023-07-29T07:06:22;4.7;;;4.3;;
64018;SDS011;66942;52.138;5.216;2023-07-29T07:09:34;5.6;;;5.11;;
64018;SDS011;66942;52.138;5.216;2023-07-29T07:11:10;5.0;;;4.5;;
64018;SDS011;66942;52.138;5.216;2023-07-29T07:12:47;4.3;;;4.0;;
64018;SDS011;66942;52.138;5.216;2023-07-29T07:16:00;5.7;;;4.61;;
64018;SDS011;66942;52.138;5.216;2023-07-29T07:17:36;4.91;;;4.5;;
64018;SDS011;66942;52.138;5.216;2023-07-29T07:19:12;4.41;;;4.0;;
64018;SDS011;66942;52.138;5.216;2023-07-29T07:20:48;4.41;;;4.1;;
64018;SDS011;66942;52.138;5.216;2023-07-29T07:24:01;4.0;;;3.7;;
64018;SDS011;66942;52.138;5.216;2023-07-29T07:25:37;4.7;;;4.3;;
64018;SDS011;66942;52.138;5.216;2023-07-29T07:27:13;5.0;;;4.61;;
64018;SDS011;66942;52.138;5.216;2023-07-29T07:30:26;4.91;;;4.5;;
64018;SDS011;66942;52.138;5.216;2023-07-29T07:32:02;5.2;;;4.8;;
64018;SDS011;66942;52.138;5.216;2023-07-29T07:33:39;4.5;;;4.2;;
64018;SDS011;66942;52.138;5.216;2023-07-29T07:36:51;4.1;;;3.8;;
64018;SDS011;66942;52.138;5.216;2023-07-29T07:38:27;4.1;;;3.8;;
64018;SDS011;66942;52.138;5.216;2023-07-29T07:40:04;4.91;;;4.41;;
64018;SDS011;66942;52.138;5.216;2023-07-29T07:43:18;3.7;;;3.4;;
64018;SDS011;66942;52.138;5.216;2023-07-29T07:44:54;5.11;;;3.8;;
64018;SDS011;66942;52.138;5.216;2023-07-29T07:46:30;3.9;;;3.6;;
64018;SDS011;66942;52.138;5.216;2023-07-29T07:48:06;3.6;;;3.3;;
64018;SDS011;66942;52.138;5.216;2023-07-29T07:51:18;4.0;;;3.7;;
64018;SDS011;66942;52.138;5.216;2023-07-29T07:52:55;3.3;;;3.0;;
64018;SDS011;66942;52.138;5.216;2023-07-29T07:54:31;3.8;;;3.5;;
64018;SDS011;66942;52.138;5.216;2023-07-29T07:57:43;3.9;;;3.3;;
64018;SDS011;66942;52.138;5.216;2023-07-29T07:59:19;4.0;;;3.6;;
64018;SDS011;66942;52.138;5.216;2023-07-29T08:01:00;3.8;;;3.5;;
64018;SDS011;66942;52.138;5.216;2023-07-29T08:04:12;3.4;;;3.1;;
64018;SDS011;66942;52.138;5.216;2023-07-29T08:05:49;3.6;;;3.3;;
64018;SDS011;66942;52.138;5.216;2023-07-29T08:07:25;3.9;;;3.6;;
64018;SDS011;66942;52.138;5.216;2023-07-29T08:09:01;3.5;;;3.2;;
64018;SDS011;66942;52.138;5.216;2023-07-29T08:12:13;3.5;;;3.2;;
64018;SDS011;66942;52.138;5.216;2023-07-29T08:13:49;3.3;;;3.0;;
64018;SDS011;66942;52.138;5.216;2023-07-29T08:15:25;3.5;;;3.2;;
64018;SDS011;66942;52.138;5.216;2023-07-29T08:18:38;2.8;;;2.6;;
64018;SDS011;66942;52.138;5.216;2023-07-29T08:20:14;2.6;;;2.4;;
64018;SDS011;66942;52.138;5.216;2023-07-29T08:21:50;3.0;;;2.6;;
64018;SDS011;66942;52.138;5.216;2023-07-29T08:25:03;2.5;;;2.21;;
64018;SDS011;66942;52.138;5.216;2023-07-29T08:26:40;2.7;;;2.5;;
64018;SDS011;66942;52.138;5.216;2023-07-29T08:28:16;2.0;;;1.9;;
64018;SDS011;66942;52.138;5.216;2023-07-29T08:29:53;2.31;;;2.1;;
64018;SDS011;66942;52.138;5.216;2023-07-29T08:33:06;2.4;;;2.21;;
64018;SDS011;66942;52.138;5.216;2023-07-29T08:34:42;2.5;;;2.1;;
64018;SDS011;66942;52.138;5.216;2023-07-29T08:36:18;3.0;;;2.0;;
64018;SDS011;66942;52.138;5.216;2023-07-29T08:39:30;3.9;;;2.31;;
64018;SDS011;66942;52.138;5.216;2023-07-29T08:41:09;2.8;;;2.5;;
64018;SDS011;66942;52.138;5.216;2023-07-29T08:42:52;2.6;;;2.31;;
64018;SDS011;66942;52.138;5.216;2023-07-29T08:44:35;2.31;;;2.0;;
64018;SDS011;66942;52.138;5.216;2023-07-29T08:47:52;2.6;;;2.4;;
64018;SDS011;66942;52.138;5.216;2023-07-29T08:49:33;2.4;;;2.21;;
64018;SDS011;66942;52.138;5.216;2023-07-29T08:51:10;2.4;;;2.21;;
64018;SDS011;66942;52.138;5.216;2023-07-29T08:54:24;2.4;;;2.21;;
64018;SDS011;66942;52.138;5.216;2023-07-29T08:56:01;2.7;;;2.4;;
64018;SDS011;66942;52.138;5.216;2023-07-29T08:57:38;4.7;;;2.5;;
64018;SDS011;66942;52.138;5.216;2023-07-29T08:59:14;2.7;;;2.5;;
64018;SDS011;66942;52.138;5.216;2023-07-29T09:02:28;2.7;;;2.21;;
64018;SDS011;66942;52.138;5.216;2023-07-29T09:04:04;2.5;;;2.1;;
64018;SDS011;66942;52.138;5.216;2023-07-29T09:05:40;2.21;;;2.0;;
64018;SDS011;66942;52.138;5.216;2023-07-29T09:08:54;2.7;;;2.0;;
64018;SDS011;66942;52.138;5.216;2023-07-29T09:10:30;3.0;;;2.21;;
64018;SDS011;66942;52.138;5.216;2023-07-29T09:12:11;2.5;;;2.31;;
64018;SDS011;66942;52.138;5.216;2023-07-29T09:13:47;2.31;;;2.1;;
64018;SDS011;66942;52.138;5.216;2023-07-29T09:17:06;3.1;;;2.21;;
64018;SDS011;66942;52.138;5.216;2023-07-29T09:18:42;3.1;;;2.4;;
64018;SDS011;66942;52.138;5.216;2023-07-29T09:20:23;2.21;;;2.1;;
64018;SDS011;66942;52.138;5.216;2023-07-29T09:23:39;3.3;;;2.1;;
64018;SDS011;66942;52.138;5.216;2023-07-29T09:25:16;2.4;;;2.21;;
64018;SDS011;66942;52.138;5.216;2023-07-29T09:26:59;2.5;;;2.31;;
64018;SDS011;66942;52.138;5.216;2023-07-29T09:28:35;3.4;;;2.5;;
64018;SDS011;66942;52.138;5.216;2023-07-29T09:31:51;2.1;;;1.9;;
64018;SDS011;66942;52.138;5.216;2023-07-29T09:33:28;2.31;;;2.1;;
64018;SDS011;66942;52.138;5.216;2023-07-29T09:35:05;2.0;;;1.8;;
64018;SDS011;66942;52.138;5.216;2023-07-29T09:38:25;2.4;;;2.21;;
64018;SDS011;66942;52.138;5.216;2023-07-29T09:40:03;2.5;;;2.1;;
64018;SDS011;66942;52.138;5.216;2023-07-29T09:41:40;2.8;;;2.4;;
64018;SDS011;66942;52.138;5.216;2023-07-29T09:43:16;2.31;;;2.1;;
64018;SDS011;66942;52.138;5.216;2023-07-29T09:46:31;2.8;;;2.5;;
64018;SDS011;66942;52.138;5.216;2023-07-29T09:48:09;3.6;;;2.4;;
64018;SDS011;66942;52.138;5.216;2023-07-29T09:49:45;4.1;;;2.7;;
64018;SDS011;66942;52.138;5.216;2023-07-29T09:52:57;3.1;;;2.7;;
64018;SDS011;66942;52.138;5.216;2023-07-29T09:54:33;2.7;;;2.4;;
64018;SDS011;66942;52.138;5.216;2023-07-29T09:56:11;2.8;;;2.6;;
64018;SDS011;66942;52.138;5.216;2023-07-29T09:57:52;2.4;;;2.21;;
64018;SDS011;66942;52.138;5.216;2023-07-29T10:01:10;2.7;;;2.5;;
64018;SDS011;66942;52.138;5.216;2023-07-29T10:02:47;2.31;;;2.1;;
64018;SDS011;66942;52.138;5.216;2023-07-29T10:04:24;2.31;;;2.1;;
64018;SDS011;66942;52.138;5.216;2023-07-29T10:07:39;2.31;;;2.1;;
64018;SDS011;66942;52.138;5.216;2023-07-29T10:09:15;4.0;;;2.8;;
64018;SDS011;66942;52.138;5.216;2023-07-29T10:10:53;2.21;;;1.9;;
64018;SDS011;66942;52.138;5.216;2023-07-29T10:12:31;2.4;;;2.21;;
64018;SDS011;66942;52.138;5.216;2023-07-29T10:15:45;2.8;;;2.1;;
64018;SDS011;66942;52.138;5.216;2023-07-29T10:17:22;2.21;;;2.0;;
64018;SDS011;66942;52.138;5.216;2023-07-29T10:19:01;2.31;;;2.1;;
64018;SDS011;66942;52.138;5.216;2023-07-29T10:22:19;2.9;;;2.6;;
64018;SDS011;66942;52.138;5.216;2023-07-29T10:23:57;2.7;;;2.0;;
64018;SDS011;66942;52.138;5.216;2023-07-29T10:25:43;2.8;;;2.5;;
64018;SDS011;66942;52.138;5.216;2023-07-29T10:27:23;2.8;;;2.4;;
64018;SDS011;66942;52.138;5.216;2023-07-29T10:30:42;2.5;;;2.31;;
64018;SDS011;66942;52.138;5.216;2023-07-29T10:32:18;2.6;;;1.7;;
64018;SDS011;66942;52.138;5.216;2023-07-29T10:34:01;2.21;;;1.6;;
64018;SDS011;66942;52.138;5.216;2023-07-29T10:35:38;2.21;;;1.9;;
64018;SDS011;66942;52.138;5.216;2023-07-29T10:38:51;1.9;;;1.7;;
64018;SDS011;66942;52.138;5.216;2023-07-29T10:40:43;2.21;;;2.0;;
64018;SDS011;66942;52.138;5.216;2023-07-29T10:42:20;2.31;;;2.1;;
64018;SDS011;66942;52.138;5.216;2023-07-29T10:43:57;2.5;;;2.4;;
64018;SDS011;66942;52.138;5.216;2023-07-29T10:47:15;2.4;;;2.21;;
64018;SDS011;66942;52.138;5.216;2023-07-29T10:48:53;2.9;;;2.7;;
64018;SDS011;66942;52.138;5.216;2023-07-29T10:50:31;2.8;;;2.6;;
64018;SDS011;66942;52.138;5.216;2023-07-29T10:52:07;4.0;;;2.8;;
64018;SDS011;66942;52.138;5.216;2023-07-29T10:55:28;3.1;;;2.9;;
64018;SDS011;66942;52.138;5.216;2023-07-29T10:57:05;3.2;;;3.0;;
64018;SDS011;66942;52.138;5.216;2023-07-29T10:58:43;3.8;;;3.5;;
64018;SDS011;66942;52.138;5.216;2023-07-29T11:01:56;3.2;;;2.9;;
64018;SDS011;66942;52.138;5.216;2023-07-29T11:03:34;3.7;;;3.5;;
64018;SDS011;66942;52.138;5.216;2023-07-29T11:05:15;2.8;;;2.7;;
64018;SDS011;66942;52.138;5.216;2023-07-29T11:07:25;2.31;;;2.21;;
64018;SDS011;66942;52.138;5.216;2023-07-29T11:09:21;2.0;;;1.7;;
64018;SDS011;66942;52.138;5.216;2023-07-29T11:11:14;2.0;;;1.8;;
64018;SDS011;66942;52.138;5.216;2023-07-29T11:14:28;1.5;;;1.4;;
64018;SDS011;66942;52.138;5.216;2023-07-29T11:16:05;1.3;;;1.2;;
64018;SDS011;66942;52.138;5.216;2023-07-29T11:17:43;1.5;;;1.4;;
64018;SDS011;66942;52.138;5.216;2023-07-29T11:19:20;1.8;;;1.4;;
64018;SDS011;66942;52.138;5.216;2023-07-29T11:22:34;1.3;;;1.2;;
64018;SDS011;66942;52.138;5.216;2023-07-29T11:24:11;1.3;;;1.2;;
64018;SDS011;66942;52.138;5.216;2023-07-29T11:25:54;1.11;;;1.0;;
64018;SDS011;66942;52.138;5.216;2023-07-29T11:29:06;1.8;;;1.3;;
64018;SDS011;66942;52.138;5.216;2023-07-29T11:30:45;1.11;;;1.0;;
64018;SDS011;66942;52.138;5.216;2023-07-29T11:32:21;1.4;;;1.0;;
64018;SDS011;66942;52.138;5.216;2023-07-29T11:35:33;1.11;;;1.0;;
64018;SDS011;66942;52.138;5.216;2023-07-29T11:37:10;0.9;;;0.6;;
64018;SDS011;66942;52.138;5.216;2023-07-29T11:38:47;0.7;;;0.6;;
64018;SDS011;66942;52.138;5.216;2023-07-29T11:40:23;1.6;;;0.8;;
64018;SDS011;66942;52.138;5.216;2023-07-29T11:43:36;0.7;;;0.6;;
64018;SDS011;66942;52.138;5.216;2023-07-29T11:45:13;0.8;;;0.5;;
64018;SDS011;66942;52.138;5.216;2023-07-29T11:46:50;1.4;;;0.7;;
64018;SDS011;66942;52.138;5.216;2023-07-29T11:50:03;0.6;;;0.5;;
64018;SDS011;66942;52.138;5.216;2023-07-29T11:51:42;0.7;;;0.7;;
64018;SDS011;66942;52.138;5.216;2023-07-29T11:53:18;0.9;;;0.7;;
64018;SDS011;66942;52.138;5.216;2023-07-29T11:54:54;1.0;;;0.9;;
64018;SDS011;66942;52.138;5.216;2023-07-29T11:58:07;1.4;;;1.0;;
64018;SDS011;66942;52.138;5.216;2023-07-29T11:59:44;1.3;;;1.2;;
64018;SDS011;66942;52.138;5.216;2023-07-29T12:01:22;1.5;;;1.3;;
64018;SDS011;66942;52.138;5.216;2023-07-29T12:04:35;1.5;;;1.4;;
64018;SDS011;66942;52.138;5.216;2023-07-29T12:06:13;1.2;;;1.11;;
64018;SDS011;66942;52.138;5.216;2023-07-29T12:07:50;1.5;;;1.4;;
64018;SDS011;66942;52.138;5.216;2023-07-29T12:11:03;2.9;;;1.7;;
64018;SDS011;66942;52.138;5.216;2023-07-29T12:12:44;1.2;;;1.11;;
64018;SDS011;66942;52.138;5.216;2023-07-29T12:14:25;1.2;;;1.11;;
64018;SDS011;66942;52.138;5.216;2023-07-29T12:16:02;1.4;;;1.3;;
64018;SDS011;66942;52.138;5.216;2023-07-29T12:19:16;0.9;;;0.9;;
64018;SDS011;66942;52.138;5.216;2023-07-29T12:20:52;1.2;;;1.11;;
64018;SDS011;66942;52.138;5.216;2023-07-29T12:22:29;1.2;;;1.11;;
64018;SDS011;66942;52.138;5.216;2023-07-29T12:25:41;1.7;;;1.3;;
64018;SDS011;66942;52.138;5.216;2023-07-29T12:27:17;1.11;;;1.11;;
64018;SDS011;66942;52.138;5.216;2023-07-29T12:28:53;1.3;;;1.2;;
64018;SDS011;66942;52.138;5.216;2023-07-29T12:30:29;1.3;;;1.2;;
64018;SDS011;66942;52.138;5.216;2023-07-29T12:33:43;1.11;;;1.0;;
64018;SDS011;66942;52.138;5.216;2023-07-29T12:35:19;1.4;;;1.3;;
64018;SDS011;66942;52.138;5.216;2023-07-29T12:36:56;1.2;;;1.2;;
64018;SDS011;66942;52.138;5.216;2023-07-29T12:40:20;1.4;;;1.3;;
64018;SDS011;66942;52.138;5.216;2023-07-29T12:41:58;1.4;;;1.3;;
64018;SDS011;66942;52.138;5.216;2023-07-29T12:43:36;1.6;;;1.5;;
64018;SDS011;66942;52.138;5.216;2023-07-29T12:45:14;1.2;;;1.11;;
64018;SDS011;66942;52.138;5.216;2023-07-29T12:48:28;1.4;;;1.3;;
64018;SDS011;66942;52.138;5.216;2023-07-29T12:50:04;1.5;;;1.4;;
64018;SDS011;66942;52.138;5.216;2023-07-29T12:51:41;1.4;;;1.3;;
64018;SDS011;66942;52.138;5.216;2023-07-29T12:54:53;1.2;;;1.11;;